sensor_id;sensor_type;location;lat;lon;timestamp;temperature;humidity
20963;DHT22;10640;50.140;8.138;2022-07-23T00:01:20;20.50;99.90
20963;DHT22;10640;50.140;8.138;2022-07-23T00:03:47;20.50;99.90
20963;DHT22;10640;50.140;8.138;2022-07-23T00:06:14;20.40;99.90
20963;DHT22;10640;50.140;8.138;2022-07-23T00:08:42;20.20;99.90
20963;DHT22;10640;50.140;8.138;2022-07-23T00:11:09;20.20;99.90
20963;DHT22;10640;50.140;8.138;2022-07-23T00:13:36;20.30;99.90
20963;DHT22;10640;50.140;8.138;2022-07-23T00:16:05;20.20;99.90
20963;DHT22;10640;50.140;8.138;2022-07-23T00:18:32;20.10;99.90
20963;DHT22;10640;50.140;8.138;2022-07-23T00:20:59;19.90;99.90
20963;DHT22;10640;50.140;8.138;2022-07-23T00:23:26;20.00;99.90
20963;DHT22;10640;50.140;8.138;2022-07-23T00:25:54;20.10;99.90
20963;DHT22;10640;50.140;8.138;2022-07-23T00:28:21;20.20;99.90
20963;DHT22;10640;50.140;8.138;2022-07-23T00:30:48;20.10;99.90
20963;DHT22;10640;50.140;8.138;2022-07-23T00:33:16;19.80;99.90
20963;DHT22;10640;50.140;8.138;2022-07-23T00:35:43;19.70;99.90
20963;DHT22;10640;50.140;8.138;2022-07-23T00:38:11;19.90;99.90
20963;DHT22;10640;50.140;8.138;2022-07-23T00:40:38;19.90;99.90
20963;DHT22;10640;50.140;8.138;2022-07-23T00:43:05;19.70;99.90
20963;DHT22;10640;50.140;8.138;2022-07-23T00:45:33;19.70;99.90
20963;DHT22;10640;50.140;8.138;2022-07-23T00:48:00;19.80;99.90
20963;DHT22;10640;50.140;8.138;2022-07-23T00:50:29;19.80;99.90
20963;DHT22;10640;50.140;8.138;2022-07-23T00:52:57;19.70;99.90
20963;DHT22;10640;50.140;8.138;2022-07-23T00:55:24;19.70;99.90
20963;DHT22;10640;50.140;8.138;2022-07-23T00:57:53;19.70;99.90
20963;DHT22;10640;50.140;8.138;2022-07-23T01:00:21;19.60;99.90
20963;DHT22;10640;50.140;8.138;2022-07-23T01:02:48;19.60;99.90
20963;DHT22;10640;50.140;8.138;2022-07-23T01:05:16;19.60;99.90
20963;DHT22;10640;50.140;8.138;2022-07-23T01:07:50;19.70;99.90
20963;DHT22;10640;50.140;8.138;2022-07-23T01:10:18;19.60;99.90
20963;DHT22;10640;50.140;8.138;2022-07-23T01:12:59;19.80;99.90
20963;DHT22;10640;50.140;8.138;2022-07-23T01:15:27;19.60;99.90
20963;DHT22;10640;50.140;8.138;2022-07-23T01:17:55;19.50;99.90
20963;DHT22;10640;50.140;8.138;2022-07-23T01:20:22;19.70;99.90
20963;DHT22;10640;50.140;8.138;2022-07-23T01:22:52;19.80;99.90
20963;DHT22;10640;50.140;8.138;2022-07-23T01:25:20;19.90;99.90
20963;DHT22;10640;50.140;8.138;2022-07-23T01:27:48;19.80;99.90
20963;DHT22;10640;50.140;8.138;2022-07-23T01:30:15;19.90;99.90
20963;DHT22;10640;50.140;8.138;2022-07-23T01:32:43;19.80;99.90
20963;DHT22;10640;50.140;8.138;2022-07-23T01:35:10;19.80;99.90
20963;DHT22;10640;50.140;8.138;2022-07-23T01:37:37;19.70;99.90
20963;DHT22;10640;50.140;8.138;2022-07-23T01:40:07;19.70;99.90
20963;DHT22;10640;50.140;8.138;2022-07-23T01:42:34;19.70;99.90
20963;DHT22;10640;50.140;8.138;2022-07-23T01:45:03;19.70;99.90
20963;DHT22;10640;50.140;8.138;2022-07-23T01:47:30;19.50;99.90
20963;DHT22;10640;50.140;8.138;2022-07-23T01:49:58;19.60;99.90
20963;DHT22;10640;50.140;8.138;2022-07-23T01:52:25;19.70;99.90
20963;DHT22;10640;50.140;8.138;2022-07-23T01:54:52;19.70;99.90
20963;DHT22;10640;50.140;8.138;2022-07-23T01:57:20;19.50;99.90
20963;DHT22;10640;50.140;8.138;2022-07-23T01:59:47;19.70;99.90
20963;DHT22;10640;50.140;8.138;2022-07-23T02:02:15;19.70;99.90
20963;DHT22;10640;50.140;8.138;2022-07-23T02:04:42;19.60;99.90
20963;DHT22;10640;50.140;8.138;2022-07-23T02:07:09;19.60;99.90
20963;DHT22;10640;50.140;8.138;2022-07-23T02:09:36;19.40;99.90
20963;DHT22;10640;50.140;8.138;2022-07-23T02:12:03;19.60;99.90
20963;DHT22;10640;50.140;8.138;2022-07-23T02:14:32;19.50;99.90
20963;DHT22;10640;50.140;8.138;2022-07-23T02:16:59;19.30;99.90
20963;DHT22;10640;50.140;8.138;2022-07-23T02:19:26;19.40;99.90
20963;DHT22;10640;50.140;8.138;2022-07-23T02:21:53;19.40;99.90
20963;DHT22;10640;50.140;8.138;2022-07-23T02:24:21;19.50;99.90
20963;DHT22;10640;50.140;8.138;2022-07-23T02:26:48;19.30;99.90
20963;DHT22;10640;50.140;8.138;2022-07-23T02:29:14;19.40;99.90
20963;DHT22;10640;50.140;8.138;2022-07-23T02:31:43;19.40;99.90
20963;DHT22;10640;50.140;8.138;2022-07-23T02:34:10;19.40;99.90
20963;DHT22;10640;50.140;8.138;2022-07-23T02:36:37;19.40;99.90
20963;DHT22;10640;50.140;8.138;2022-07-23T02:39:05;19.20;99.90
20963;DHT22;10640;50.140;8.138;2022-07-23T02:41:32;19.30;99.90
20963;DHT22;10640;50.140;8.138;2022-07-23T02:43:59;19.10;99.90
20963;DHT22;10640;50.140;8.138;2022-07-23T02:46:26;19.10;99.90
20963;DHT22;10640;50.140;8.138;2022-07-23T02:48:55;19.20;99.90
20963;DHT22;10640;50.140;8.138;2022-07-23T02:51:22;19.20;99.90
20963;DHT22;10640;50.140;8.138;2022-07-23T02:53:49;19.40;99.90
20963;DHT22;10640;50.140;8.138;2022-07-23T02:56:16;19.20;99.90
20963;DHT22;10640;50.140;8.138;2022-07-23T02:58:43;19.30;99.90
20963;DHT22;10640;50.140;8.138;2022-07-23T03:01:10;19.30;99.90
20963;DHT22;10640;50.140;8.138;2022-07-23T03:03:37;19.20;99.90
20963;DHT22;10640;50.140;8.138;2022-07-23T03:06:06;19.30;99.90
20963;DHT22;10640;50.140;8.138;2022-07-23T03:08:33;19.30;99.90
20963;DHT22;10640;50.140;8.138;2022-07-23T03:10:59;19.20;99.90
20963;DHT22;10640;50.140;8.138;2022-07-23T03:13:26;19.20;99.90
20963;DHT22;10640;50.140;8.138;2022-07-23T03:15:55;19.00;99.90
20963;DHT22;10640;50.140;8.138;2022-07-23T03:18:22;19.10;99.90
20963;DHT22;10640;50.140;8.138;2022-07-23T03:20:49;19.10;99.90
20963;DHT22;10640;50.140;8.138;2022-07-23T03:23:17;19.00;99.90
20963;DHT22;10640;50.140;8.138;2022-07-23T03:25:44;19.10;99.90
20963;DHT22;10640;50.140;8.138;2022-07-23T03:28:12;19.20;99.90
20963;DHT22;10640;50.140;8.138;2022-07-23T03:30:39;19.20;99.90
20963;DHT22;10640;50.140;8.138;2022-07-23T03:33:06;19.10;99.90
20963;DHT22;10640;50.140;8.138;2022-07-23T03:35:33;19.20;99.90
20963;DHT22;10640;50.140;8.138;2022-07-23T03:38:00;19.10;99.90
20963;DHT22;10640;50.140;8.138;2022-07-23T03:40:32;19.00;99.90
20963;DHT22;10640;50.140;8.138;2022-07-23T03:42:59;19.00;99.90
20963;DHT22;10640;50.140;8.138;2022-07-23T03:45:26;19.10;99.90
20963;DHT22;10640;50.140;8.138;2022-07-23T03:47:53;19.00;99.90
20963;DHT22;10640;50.140;8.138;2022-07-23T03:50:20;18.70;99.90
20963;DHT22;10640;50.140;8.138;2022-07-23T03:52:47;18.90;99.90
20963;DHT22;10640;50.140;8.138;2022-07-23T03:55:15;18.90;99.90
20963;DHT22;10640;50.140;8.138;2022-07-23T03:57:43;18.80;99.90
20963;DHT22;10640;50.140;8.138;2022-07-23T04:00:11;18.70;99.90
20963;DHT22;10640;50.140;8.138;2022-07-23T04:02:39;18.80;99.90
20963;DHT22;10640;50.140;8.138;2022-07-23T04:05:07;18.70;99.90
20963;DHT22;10640;50.140;8.138;2022-07-23T04:07:34;18.60;99.90
20963;DHT22;10640;50.140;8.138;2022-07-23T04:10:01;18.60;99.90
20963;DHT22;10640;50.140;8.138;2022-07-23T04:12:28;18.70;99.90
20963;DHT22;10640;50.140;8.138;2022-07-23T04:14:59;18.60;99.90
20963;DHT22;10640;50.140;8.138;2022-07-23T04:17:26;18.70;99.90
20963;DHT22;10640;50.140;8.138;2022-07-23T04:19:53;18.60;99.90
20963;DHT22;10640;50.140;8.138;2022-07-23T04:22:20;18.70;99.90
20963;DHT22;10640;50.140;8.138;2022-07-23T04:24:47;18.60;99.90
20963;DHT22;10640;50.140;8.138;2022-07-23T04:27:14;18.80;99.90
20963;DHT22;10640;50.140;8.138;2022-07-23T04:29:41;18.80;99.90
20963;DHT22;10640;50.140;8.138;2022-07-23T04:32:10;19.00;99.90
20963;DHT22;10640;50.140;8.138;2022-07-23T04:34:37;18.80;99.90
20963;DHT22;10640;50.140;8.138;2022-07-23T04:37:04;18.90;99.90
20963;DHT22;10640;50.140;8.138;2022-07-23T04:39:30;18.70;99.90
20963;DHT22;10640;50.140;8.138;2022-07-23T04:41:57;18.90;99.90
20963;DHT22;10640;50.140;8.138;2022-07-23T04:44:24;18.90;99.90
20963;DHT22;10640;50.140;8.138;2022-07-23T04:46:51;19.10;99.90
20963;DHT22;10640;50.140;8.138;2022-07-23T04:49:20;19.00;99.90
20963;DHT22;10640;50.140;8.138;2022-07-23T04:51:47;18.90;99.90
20963;DHT22;10640;50.140;8.138;2022-07-23T04:54:14;18.90;99.90
20963;DHT22;10640;50.140;8.138;2022-07-23T04:56:43;18.90;99.90
20963;DHT22;10640;50.140;8.138;2022-07-23T04:59:10;18.80;99.90
20963;DHT22;10640;50.140;8.138;2022-07-23T05:01:36;18.80;99.90
20963;DHT22;10640;50.140;8.138;2022-07-23T05:04:04;18.90;99.90
20963;DHT22;10640;50.140;8.138;2022-07-23T05:06:32;19.00;99.90
20963;DHT22;10640;50.140;8.138;2022-07-23T05:08:59;19.10;99.90
20963;DHT22;10640;50.140;8.138;2022-07-23T05:11:26;19.00;99.90
20963;DHT22;10640;50.140;8.138;2022-07-23T05:13:53;18.90;99.90
20963;DHT22;10640;50.140;8.138;2022-07-23T05:16:20;19.20;99.90
20963;DHT22;10640;50.140;8.138;2022-07-23T05:18:48;19.10;99.90
20963;DHT22;10640;50.140;8.138;2022-07-23T05:21:15;19.30;99.90
20963;DHT22;10640;50.140;8.138;2022-07-23T05:23:43;19.30;99.90
20963;DHT22;10640;50.140;8.138;2022-07-23T05:26:10;19.20;99.90
20963;DHT22;10640;50.140;8.138;2022-07-23T05:28:37;19.30;99.90
20963;DHT22;10640;50.140;8.138;2022-07-23T05:31:04;19.00;99.90
20963;DHT22;10640;50.140;8.138;2022-07-23T05:33:31;19.00;99.90
20963;DHT22;10640;50.140;8.138;2022-07-23T05:36:00;19.10;99.90
20963;DHT22;10640;50.140;8.138;2022-07-23T05:38:28;19.20;99.90
20963;DHT22;10640;50.140;8.138;2022-07-23T05:40:57;19.50;99.90
20963;DHT22;10640;50.140;8.138;2022-07-23T05:43:24;19.70;99.90
20963;DHT22;10640;50.140;8.138;2022-07-23T05:45:51;19.70;99.90
20963;DHT22;10640;50.140;8.138;2022-07-23T05:48:19;19.50;99.90
20963;DHT22;10640;50.140;8.138;2022-07-23T05:50:47;19.40;99.90
20963;DHT22;10640;50.140;8.138;2022-07-23T05:53:14;19.50;99.90
20963;DHT22;10640;50.140;8.138;2022-07-23T05:55:40;19.60;99.90
20963;DHT22;10640;50.140;8.138;2022-07-23T05:58:09;19.30;99.90
20963;DHT22;10640;50.140;8.138;2022-07-23T06:00:36;19.80;99.90
20963;DHT22;10640;50.140;8.138;2022-07-23T06:03:03;20.00;99.90
20963;DHT22;10640;50.140;8.138;2022-07-23T06:05:30;20.20;99.90
20963;DHT22;10640;50.140;8.138;2022-07-23T06:07:57;20.80;99.90
20963;DHT22;10640;50.140;8.138;2022-07-23T06:10:23;20.90;99.90
20963;DHT22;10640;50.140;8.138;2022-07-23T06:12:50;21.00;99.90
20963;DHT22;10640;50.140;8.138;2022-07-23T06:15:19;20.80;99.90
20963;DHT22;10640;50.140;8.138;2022-07-23T06:17:46;20.20;99.90
20963;DHT22;10640;50.140;8.138;2022-07-23T06:20:13;20.80;99.90
20963;DHT22;10640;50.140;8.138;2022-07-23T06:22:39;20.40;99.90
20963;DHT22;10640;50.140;8.138;2022-07-23T06:25:07;20.10;99.90
20963;DHT22;10640;50.140;8.138;2022-07-23T06:27:37;20.00;99.90
20963;DHT22;10640;50.140;8.138;2022-07-23T06:30:04;20.00;99.90
20963;DHT22;10640;50.140;8.138;2022-07-23T06:32:35;20.20;99.90
20963;DHT22;10640;50.140;8.138;2022-07-23T06:35:02;20.20;99.90
20963;DHT22;10640;50.140;8.138;2022-07-23T06:37:29;19.90;99.90
20963;DHT22;10640;50.140;8.138;2022-07-23T06:39:55;20.10;99.90
20963;DHT22;10640;50.140;8.138;2022-07-23T06:42:22;20.30;99.90
20963;DHT22;10640;50.140;8.138;2022-07-23T06:44:49;20.40;99.90
20963;DHT22;10640;50.140;8.138;2022-07-23T06:47:16;20.90;99.90
20963;DHT22;10640;50.140;8.138;2022-07-23T06:49:44;21.10;99.90
20963;DHT22;10640;50.140;8.138;2022-07-23T06:52:11;21.40;99.90
20963;DHT22;10640;50.140;8.138;2022-07-23T06:54:38;21.30;99.90
20963;DHT22;10640;50.140;8.138;2022-07-23T06:57:05;21.10;99.90
20963;DHT22;10640;50.140;8.138;2022-07-23T06:59:32;21.20;99.90
20963;DHT22;10640;50.140;8.138;2022-07-23T07:02:01;22.00;99.90
20963;DHT22;10640;50.140;8.138;2022-07-23T07:04:28;22.50;99.90
20963;DHT22;10640;50.140;8.138;2022-07-23T07:06:57;22.00;99.90
20963;DHT22;10640;50.140;8.138;2022-07-23T07:09:24;22.50;99.90
20963;DHT22;10640;50.140;8.138;2022-07-23T07:11:51;22.50;1.00
20963;DHT22;10640;50.140;8.138;2022-07-23T07:14:18;22.80;99.90
20963;DHT22;10640;50.140;8.138;2022-07-23T07:16:45;22.90;99.90
20963;DHT22;10640;50.140;8.138;2022-07-23T07:19:12;23.60;99.90
20963;DHT22;10640;50.140;8.138;2022-07-23T07:21:39;23.60;1.00
20963;DHT22;10640;50.140;8.138;2022-07-23T07:24:07;23.50;52.90
20963;DHT22;10640;50.140;8.138;2022-07-23T07:26:34;23.60;1.00
20963;DHT22;10640;50.140;8.138;2022-07-23T07:29:01;23.60;99.90
20963;DHT22;10640;50.140;8.138;2022-07-23T07:31:28;24.00;99.90
20963;DHT22;10640;50.140;8.138;2022-07-23T07:33:57;24.50;99.90
20963;DHT22;10640;50.140;8.138;2022-07-23T07:36:24;24.70;87.60
20963;DHT22;10640;50.140;8.138;2022-07-23T07:38:51;24.40;99.90
20963;DHT22;10640;50.140;8.138;2022-07-23T07:41:19;24.70;1.00
20963;DHT22;10640;50.140;8.138;2022-07-23T07:43:49;25.50;18.30
20963;DHT22;10640;50.140;8.138;2022-07-23T07:46:16;25.60;95.80
20963;DHT22;10640;50.140;8.138;2022-07-23T07:48:43;25.60;1.00
20963;DHT22;10640;50.140;8.138;2022-07-23T07:51:10;26.00;1.00
20963;DHT22;10640;50.140;8.138;2022-07-23T07:53:37;25.50;11.10
20963;DHT22;10640;50.140;8.138;2022-07-23T07:56:05;23.90;1.00
20963;DHT22;10640;50.140;8.138;2022-07-23T07:58:33;24.60;1.00
20963;DHT22;10640;50.140;8.138;2022-07-23T08:01:00;24.90;99.90
20963;DHT22;10640;50.140;8.138;2022-07-23T08:03:28;24.80;99.90
20963;DHT22;10640;50.140;8.138;2022-07-23T08:05:54;25.90;1.00
20963;DHT22;10640;50.140;8.138;2022-07-23T08:08:21;26.20;1.00
20963;DHT22;10640;50.140;8.138;2022-07-23T08:10:48;26.40;1.00
20963;DHT22;10640;50.140;8.138;2022-07-23T08:13:16;26.10;1.00
20963;DHT22;10640;50.140;8.138;2022-07-23T08:15:44;27.00;1.00
20963;DHT22;10640;50.140;8.138;2022-07-23T08:18:11;27.10;1.00
20963;DHT22;10640;50.140;8.138;2022-07-23T08:20:39;26.10;1.00
20963;DHT22;10640;50.140;8.138;2022-07-23T08:23:07;26.10;99.90
20963;DHT22;10640;50.140;8.138;2022-07-23T08:25:36;26.30;99.90
20963;DHT22;10640;50.140;8.138;2022-07-23T08:28:05;26.50;1.00
20963;DHT22;10640;50.140;8.138;2022-07-23T08:30:33;25.70;1.00
20963;DHT22;10640;50.140;8.138;2022-07-23T08:33:07;25.80;1.00
20963;DHT22;10640;50.140;8.138;2022-07-23T08:35:38;25.20;99.90
20963;DHT22;10640;50.140;8.138;2022-07-23T08:38:07;24.00;99.90
20963;DHT22;10640;50.140;8.138;2022-07-23T08:40:37;25.00;99.90
20963;DHT22;10640;50.140;8.138;2022-07-23T08:43:06;26.10;1.00
20963;DHT22;10640;50.140;8.138;2022-07-23T08:45:37;26.60;1.00
20963;DHT22;10640;50.140;8.138;2022-07-23T08:48:08;26.80;99.90
20963;DHT22;10640;50.140;8.138;2022-07-23T08:50:36;26.90;99.90
20963;DHT22;10640;50.140;8.138;2022-07-23T08:53:05;26.90;99.90
20963;DHT22;10640;50.140;8.138;2022-07-23T08:55:33;27.60;99.90
20963;DHT22;10640;50.140;8.138;2022-07-23T08:58:00;27.70;99.90
20963;DHT22;10640;50.140;8.138;2022-07-23T09:00:28;27.80;99.90
20963;DHT22;10640;50.140;8.138;2022-07-23T09:02:56;27.20;90.30
20963;DHT22;10640;50.140;8.138;2022-07-23T09:05:25;26.70;98.20
20963;DHT22;10640;50.140;8.138;2022-07-23T09:08:10;26.80;44.30
20963;DHT22;10640;50.140;8.138;2022-07-23T09:10:48;27.20;28.60
20963;DHT22;10640;50.140;8.138;2022-07-23T09:13:30;28.00;1.00
20963;DHT22;10640;50.140;8.138;2022-07-23T09:16:00;27.40;1.00
20963;DHT22;10640;50.140;8.138;2022-07-23T09:18:36;28.30;1.00
20963;DHT22;10640;50.140;8.138;2022-07-23T09:21:17;27.40;1.00
20963;DHT22;10640;50.140;8.138;2022-07-23T09:23:47;27.80;1.00
20963;DHT22;10640;50.140;8.138;2022-07-23T09:26:33;28.80;1.00
20963;DHT22;10640;50.140;8.138;2022-07-23T09:29:08;29.10;1.00
20963;DHT22;10640;50.140;8.138;2022-07-23T09:31:44;29.10;1.00
20963;DHT22;10640;50.140;8.138;2022-07-23T09:34:14;28.90;1.00
20963;DHT22;10640;50.140;8.138;2022-07-23T09:36:43;28.90;1.00
20963;DHT22;10640;50.140;8.138;2022-07-23T09:39:11;29.00;1.00
20963;DHT22;10640;50.140;8.138;2022-07-23T09:41:40;28.40;1.00
20963;DHT22;10640;50.140;8.138;2022-07-23T09:44:09;28.20;1.00
20963;DHT22;10640;50.140;8.138;2022-07-23T09:46:37;29.00;1.00
20963;DHT22;10640;50.140;8.138;2022-07-23T09:49:17;28.60;1.00
20963;DHT22;10640;50.140;8.138;2022-07-23T09:51:49;29.20;1.00
20963;DHT22;10640;50.140;8.138;2022-07-23T09:54:28;29.30;1.00
20963;DHT22;10640;50.140;8.138;2022-07-23T09:56:57;28.60;1.00
20963;DHT22;10640;50.140;8.138;2022-07-23T09:59:25;27.90;1.00
20963;DHT22;10640;50.140;8.138;2022-07-23T10:01:54;27.80;1.00
20963;DHT22;10640;50.140;8.138;2022-07-23T10:04:23;28.30;1.00
20963;DHT22;10640;50.140;8.138;2022-07-23T10:06:54;29.80;1.00
20963;DHT22;10640;50.140;8.138;2022-07-23T10:09:25;29.40;1.00
20963;DHT22;10640;50.140;8.138;2022-07-23T10:11:55;30.00;1.00
20963;DHT22;10640;50.140;8.138;2022-07-23T10:14:25;29.70;1.00
20963;DHT22;10640;50.140;8.138;2022-07-23T10:16:55;28.70;1.00
20963;DHT22;10640;50.140;8.138;2022-07-23T10:19:26;29.20;1.00
20963;DHT22;10640;50.140;8.138;2022-07-23T10:22:18;29.40;1.00
20963;DHT22;10640;50.140;8.138;2022-07-23T10:25:12;29.30;1.00
20963;DHT22;10640;50.140;8.138;2022-07-23T10:28:15;31.30;1.00
20963;DHT22;10640;50.140;8.138;2022-07-23T10:30:59;30.30;1.00
20963;DHT22;10640;50.140;8.138;2022-07-23T10:33:32;29.60;1.00
20963;DHT22;10640;50.140;8.138;2022-07-23T10:36:09;29.30;1.00
20963;DHT22;10640;50.140;8.138;2022-07-23T10:38:48;28.60;1.00
20963;DHT22;10640;50.140;8.138;2022-07-23T10:41:31;28.60;1.00
20963;DHT22;10640;50.140;8.138;2022-07-23T10:44:10;29.10;1.00
20963;DHT22;10640;50.140;8.138;2022-07-23T10:46:56;31.00;1.00
20963;DHT22;10640;50.140;8.138;2022-07-23T10:49:37;32.00;1.00
20963;DHT22;10640;50.140;8.138;2022-07-23T10:52:22;31.40;1.00
20963;DHT22;10640;50.140;8.138;2022-07-23T10:54:53;30.50;1.00
20963;DHT22;10640;50.140;8.138;2022-07-23T10:57:22;29.60;1.00
20963;DHT22;10640;50.140;8.138;2022-07-23T11:00:12;29.10;1.00
20963;DHT22;10640;50.140;8.138;2022-07-23T11:02:41;29.20;1.00
20963;DHT22;10640;50.140;8.138;2022-07-23T11:05:10;29.30;1.00
20963;DHT22;10640;50.140;8.138;2022-07-23T11:08:10;29.40;1.00
20963;DHT22;10640;50.140;8.138;2022-07-23T11:10:40;28.50;1.00
20963;DHT22;10640;50.140;8.138;2022-07-23T11:13:26;29.30;1.00
20963;DHT22;10640;50.140;8.138;2022-07-23T11:16:14;28.10;1.00
20963;DHT22;10640;50.140;8.138;2022-07-23T11:19:02;29.40;1.00
20963;DHT22;10640;50.140;8.138;2022-07-23T11:21:43;30.20;1.00
20963;DHT22;10640;50.140;8.138;2022-07-23T11:24:12;29.90;1.00
20963;DHT22;10640;50.140;8.138;2022-07-23T11:26:53;31.40;1.00
20963;DHT22;10640;50.140;8.138;2022-07-23T11:29:40;30.90;1.00
20963;DHT22;10640;50.140;8.138;2022-07-23T11:32:14;30.20;1.00
20963;DHT22;10640;50.140;8.138;2022-07-23T11:34:45;30.80;1.00
20963;DHT22;10640;50.140;8.138;2022-07-23T11:37:27;31.30;1.00
20963;DHT22;10640;50.140;8.138;2022-07-23T11:39:55;30.00;1.00
20963;DHT22;10640;50.140;8.138;2022-07-23T11:42:24;28.40;1.00
20963;DHT22;10640;50.140;8.138;2022-07-23T11:44:51;28.00;1.00
20963;DHT22;10640;50.140;8.138;2022-07-23T11:50:38;28.40;1.00
20963;DHT22;10640;50.140;8.138;2022-07-23T11:53:06;30.20;1.00
20963;DHT22;10640;50.140;8.138;2022-07-23T11:55:33;30.70;1.00
20963;DHT22;10640;50.140;8.138;2022-07-23T11:58:12;29.70;1.00
20963;DHT22;10640;50.140;8.138;2022-07-23T12:00:41;30.50;1.00
20963;DHT22;10640;50.140;8.138;2022-07-23T12:03:09;29.60;1.00
20963;DHT22;10640;50.140;8.138;2022-07-23T12:05:40;27.30;1.00
20963;DHT22;10640;50.140;8.138;2022-07-23T12:08:08;26.80;1.00
20963;DHT22;10640;50.140;8.138;2022-07-23T12:10:37;28.90;1.00
20963;DHT22;10640;50.140;8.138;2022-07-23T12:13:06;29.60;1.00
20963;DHT22;10640;50.140;8.138;2022-07-23T12:15:38;29.70;1.00
20963;DHT22;10640;50.140;8.138;2022-07-23T12:18:08;29.10;1.00
20963;DHT22;10640;50.140;8.138;2022-07-23T12:20:37;30.00;1.00
20963;DHT22;10640;50.140;8.138;2022-07-23T12:23:06;30.60;1.00
20963;DHT22;10640;50.140;8.138;2022-07-23T12:25:34;31.90;1.00
20963;DHT22;10640;50.140;8.138;2022-07-23T12:28:05;31.00;1.00
20963;DHT22;10640;50.140;8.138;2022-07-23T12:30:34;31.70;1.00
20963;DHT22;10640;50.140;8.138;2022-07-23T12:33:03;31.40;1.00
20963;DHT22;10640;50.140;8.138;2022-07-23T12:35:32;31.60;1.00
20963;DHT22;10640;50.140;8.138;2022-07-23T12:38:01;31.50;1.00
20963;DHT22;10640;50.140;8.138;2022-07-23T12:40:31;30.30;1.00
20963;DHT22;10640;50.140;8.138;2022-07-23T12:43:00;30.40;1.00
20963;DHT22;10640;50.140;8.138;2022-07-23T12:45:42;30.30;1.00
20963;DHT22;10640;50.140;8.138;2022-07-23T12:48:20;30.50;1.00
20963;DHT22;10640;50.140;8.138;2022-07-23T12:50:51;31.70;1.00
20963;DHT22;10640;50.140;8.138;2022-07-23T12:53:20;32.10;1.00
20963;DHT22;10640;50.140;8.138;2022-07-23T12:55:48;30.50;1.00
20963;DHT22;10640;50.140;8.138;2022-07-23T12:58:16;30.00;1.00
20963;DHT22;10640;50.140;8.138;2022-07-23T13:01:02;28.90;1.00
20963;DHT22;10640;50.140;8.138;2022-07-23T13:03:34;29.00;1.00
20963;DHT22;10640;50.140;8.138;2022-07-23T13:06:04;29.60;1.00
20963;DHT22;10640;50.140;8.138;2022-07-23T13:08:33;29.50;1.00
20963;DHT22;10640;50.140;8.138;2022-07-23T13:11:01;29.20;1.00
20963;DHT22;10640;50.140;8.138;2022-07-23T13:13:29;30.30;1.00
20963;DHT22;10640;50.140;8.138;2022-07-23T13:15:59;31.90;1.00
20963;DHT22;10640;50.140;8.138;2022-07-23T13:18:26;30.90;1.00
20963;DHT22;10640;50.140;8.138;2022-07-23T13:20:56;29.90;1.00
20963;DHT22;10640;50.140;8.138;2022-07-23T13:23:23;30.00;1.00
20963;DHT22;10640;50.140;8.138;2022-07-23T13:25:51;30.60;1.00
20963;DHT22;10640;50.140;8.138;2022-07-23T13:28:19;31.50;1.00
20963;DHT22;10640;50.140;8.138;2022-07-23T13:30:47;30.20;1.00
20963;DHT22;10640;50.140;8.138;2022-07-23T13:33:16;30.30;1.00
20963;DHT22;10640;50.140;8.138;2022-07-23T13:35:43;30.60;1.00
20963;DHT22;10640;50.140;8.138;2022-07-23T13:38:12;30.10;1.00
20963;DHT22;10640;50.140;8.138;2022-07-23T13:40:40;29.40;1.00
20963;DHT22;10640;50.140;8.138;2022-07-23T13:43:09;28.50;1.00
20963;DHT22;10640;50.140;8.138;2022-07-23T13:45:36;28.50;1.00
20963;DHT22;10640;50.140;8.138;2022-07-23T13:48:04;28.80;1.00
20963;DHT22;10640;50.140;8.138;2022-07-23T13:50:31;28.70;1.00
20963;DHT22;10640;50.140;8.138;2022-07-23T13:53:01;29.20;1.00
20963;DHT22;10640;50.140;8.138;2022-07-23T13:55:30;30.10;1.00
20963;DHT22;10640;50.140;8.138;2022-07-23T13:57:57;29.50;1.00
20963;DHT22;10640;50.140;8.138;2022-07-23T14:00:25;29.90;1.00
20963;DHT22;10640;50.140;8.138;2022-07-23T14:02:52;28.50;1.00
20963;DHT22;10640;50.140;8.138;2022-07-23T14:05:19;28.30;1.00
20963;DHT22;10640;50.140;8.138;2022-07-23T14:07:46;29.20;1.00
20963;DHT22;10640;50.140;8.138;2022-07-23T14:10:15;29.40;1.00
20963;DHT22;10640;50.140;8.138;2022-07-23T14:12:44;29.50;1.00
20963;DHT22;10640;50.140;8.138;2022-07-23T14:15:12;29.10;1.00
20963;DHT22;10640;50.140;8.138;2022-07-23T14:17:43;29.30;1.00
20963;DHT22;10640;50.140;8.138;2022-07-23T14:20:11;29.20;1.00
20963;DHT22;10640;50.140;8.138;2022-07-23T14:22:38;29.20;1.00
20963;DHT22;10640;50.140;8.138;2022-07-23T14:25:06;29.00;1.00
20963;DHT22;10640;50.140;8.138;2022-07-23T14:27:34;29.30;1.00
20963;DHT22;10640;50.140;8.138;2022-07-23T14:30:05;29.20;1.00
20963;DHT22;10640;50.140;8.138;2022-07-23T14:32:32;29.60;1.00
20963;DHT22;10640;50.140;8.138;2022-07-23T14:34:59;28.60;1.00
20963;DHT22;10640;50.140;8.138;2022-07-23T14:37:26;29.00;1.00
20963;DHT22;10640;50.140;8.138;2022-07-23T14:39:53;28.90;1.00
20963;DHT22;10640;50.140;8.138;2022-07-23T14:42:20;29.00;1.00
20963;DHT22;10640;50.140;8.138;2022-07-23T14:44:47;29.60;1.00
20963;DHT22;10640;50.140;8.138;2022-07-23T14:47:16;29.40;1.00
20963;DHT22;10640;50.140;8.138;2022-07-23T14:49:42;29.70;1.00
20963;DHT22;10640;50.140;8.138;2022-07-23T14:52:09;29.40;1.00
20963;DHT22;10640;50.140;8.138;2022-07-23T14:54:36;29.30;1.00
20963;DHT22;10640;50.140;8.138;2022-07-23T14:57:04;29.50;1.00
20963;DHT22;10640;50.140;8.138;2022-07-23T14:59:33;29.20;1.00
20963;DHT22;10640;50.140;8.138;2022-07-23T15:02:00;28.90;1.00
20963;DHT22;10640;50.140;8.138;2022-07-23T15:04:28;29.30;1.00
20963;DHT22;10640;50.140;8.138;2022-07-23T15:06:55;29.30;1.00
20963;DHT22;10640;50.140;8.138;2022-07-23T15:09:22;29.40;1.00
20963;DHT22;10640;50.140;8.138;2022-07-23T15:11:49;29.20;1.00
20963;DHT22;10640;50.140;8.138;2022-07-23T15:14:16;29.00;1.00
20963;DHT22;10640;50.140;8.138;2022-07-23T15:16:43;28.90;1.00
20963;DHT22;10640;50.140;8.138;2022-07-23T15:19:10;28.80;1.00
20963;DHT22;10640;50.140;8.138;2022-07-23T15:21:38;28.40;1.00
20963;DHT22;10640;50.140;8.138;2022-07-23T15:24:06;28.10;1.00
20963;DHT22;10640;50.140;8.138;2022-07-23T15:26:33;28.50;1.00
20963;DHT22;10640;50.140;8.138;2022-07-23T15:28:59;28.10;1.00
20963;DHT22;10640;50.140;8.138;2022-07-23T15:31:28;28.20;1.00
20963;DHT22;10640;50.140;8.138;2022-07-23T15:33:55;28.20;1.00
20963;DHT22;10640;50.140;8.138;2022-07-23T15:36:22;28.80;1.00
20963;DHT22;10640;50.140;8.138;2022-07-23T15:38:50;28.90;1.00
20963;DHT22;10640;50.140;8.138;2022-07-23T15:41:17;28.20;1.00
20963;DHT22;10640;50.140;8.138;2022-07-23T15:43:44;28.20;1.00
20963;DHT22;10640;50.140;8.138;2022-07-23T15:46:11;27.90;1.00
20963;DHT22;10640;50.140;8.138;2022-07-23T15:48:38;28.70;1.00
20963;DHT22;10640;50.140;8.138;2022-07-23T15:51:06;28.80;1.00
20963;DHT22;10640;50.140;8.138;2022-07-23T15:53:33;28.20;1.00